Time;durP1;ratioP1;P1;durP2;ratioP2;P2;SDS_P1;SDS_P2;PMS_P1;PMS_P2;Temp;Humidity;BMP_temperature;BMP_pressure;BME280_temperature;BME280_humidity;BME280_pressure;Samples;Min_cycle;Max_cycle;Signal;HPM_P1;HPM_P2
2021/07/15 00:01:06;;;;;;;8.88;5.00;;;15.80;99.90;;;;;;4939165;29;20481;-94
2021/07/15 00:03:32;;;;;;;8.15;5.15;;;15.90;99.90;;;;;;4939476;29;20031;-94
2021/07/15 00:05:58;;;;;;;8.52;4.95;;;15.80;99.90;;;;;;4939505;29;20077;-94
2021/07/15 00:08:25;;;;;;;6.40;4.68;;;15.80;99.90;;;;;;4939507;29;20038;-94
2021/07/15 00:11:00;;;;;;;7.45;4.25;;;15.80;99.90;;;;;;4939422;28;20041;-95
2021/07/15 00:13:27;;;;;;;8.30;4.82;;;15.80;99.90;;;;;;4939099;29;20030;-94
2021/07/15 00:15:56;;;;;;;6.20;4.43;;;15.80;99.90;;;;;;4938949;29;20026;-96
2021/07/15 00:18:26;;;;;;;7.75;5.18;;;15.80;99.90;;;;;;4939493;29;20023;-96
2021/07/15 00:20:53;;;;;;;7.15;4.13;;;15.80;99.90;;;;;;4939506;29;20034;-94
2021/07/15 00:23:20;;;;;;;9.13;4.55;;;15.70;99.90;;;;;;4939137;28;20040;-95
2021/07/15 00:25:46;;;;;;;7.30;4.82;;;15.70;99.90;;;;;;4923097;29;20066;-94
2021/07/15 00:28:15;;;;;;;7.60;4.95;;;15.60;99.90;;;;;;4938607;29;20106;-96
2021/07/15 00:30:41;;;;;;;9.55;5.13;;;15.60;99.90;;;;;;4938691;29;20043;-94
2021/07/15 00:33:08;;;;;;;8.02;4.93;;;15.60;99.90;;;;;;4939644;29;20056;-94
2021/07/15 00:35:35;;;;;;;8.20;5.43;;;15.60;99.90;;;;;;4939791;29;20031;-96
2021/07/15 00:38:01;;;;;;;8.98;4.93;;;15.60;99.90;;;;;;4940444;28;20028;-94
2021/07/15 00:40:27;;;;;;;10.15;5.50;;;15.60;99.90;;;;;;4939369;29;20031;-96
2021/07/15 00:42:52;;;;;;;7.82;5.47;;;15.60;99.90;;;;;;4940137;29;20038;-96
2021/07/15 00:45:18;;;;;;;10.45;5.95;;;15.60;99.90;;;;;;4939206;28;20043;-96
2021/07/15 00:47:47;;;;;;;9.88;5.32;;;15.60;99.90;;;;;;4946336;29;20027;-96
2021/07/15 00:50:15;;;;;;;10.48;6.05;;;15.60;99.90;;;;;;4946053;29;20063;-96
2021/07/15 00:52:42;;;;;;;11.10;5.85;;;15.60;99.90;;;;;;4946212;28;20027;-95
2021/07/15 00:55:13;;;;;;;7.88;5.63;;;15.60;99.90;;;;;;4946737;29;20019;-95
2021/07/15 00:57:39;;;;;;;9.52;5.65;;;15.60;99.90;;;;;;4953294;29;20089;-96
2021/07/15 01:00:08;;;;;;;10.55;6.43;;;15.60;99.90;;;;;;4945445;29;20432;-95
2021/07/15 01:02:34;;;;;;;9.90;5.53;;;15.50;99.90;;;;;;4945203;29;20563;-95
2021/07/15 01:05:01;;;;;;;10.82;6.22;;;15.50;99.90;;;;;;4945231;28;20043;-96
2021/07/15 01:07:27;;;;;;;9.02;5.85;;;15.50;99.90;;;;;;4945103;29;20020;-95
2021/07/15 01:09:52;;;;;;;7.90;5.32;;;15.50;99.90;;;;;;4945460;29;20034;-95
2021/07/15 01:12:34;;;;;;;8.45;5.07;;;15.50;99.90;;;;;;4944819;29;20027;-95
2021/07/15 01:15:01;;;;;;;10.18;6.03;;;15.50;99.90;;;;;;4945351;29;20481;-95
2021/07/15 01:17:32;;;;;;;12.65;6.60;;;15.50;99.90;;;;;;4944916;29;20027;-95
2021/07/15 01:20:01;;;;;;;;;;;15.40;99.90;;;;;;4945624;28;20047;-95
2021/07/15 01:23:01;;;;;;;7.55;5.80;;;15.40;99.90;;;;;;4944943;29;19907;-95
2021/07/15 01:25:49;;;;;;;10.48;6.05;;;15.40;99.90;;;;;;4945367;29;20046;-95
2021/07/15 01:28:34;;;;;;;10.60;6.63;;;15.40;99.90;;;;;;4944797;29;20143;-95
2021/07/15 01:31:02;;;;;;;12.88;6.70;;;15.30;99.90;;;;;;4945176;29;20046;-95
2021/07/15 01:33:31;;;;;;;10.48;6.05;;;15.30;99.90;;;;;;4945187;29;20546;-95
2021/07/15 01:36:04;;;;;;;11.48;5.80;;;15.30;99.90;;;;;;4944722;29;20208;-94
2021/07/15 01:38:55;;;;;;;11.85;5.90;;;15.30;99.90;;;;;;4944926;29;20400;-95
2021/07/15 01:41:23;;;;;;;12.40;7.13;;;15.30;99.90;;;;;;4945365;29;20023;-94
2021/07/15 01:44:06;;;;;;;12.13;6.32;;;15.30;99.90;;;;;;4945883;29;20035;-94
2021/07/15 01:46:33;;;;;;;11.15;6.38;;;15.30;99.90;;;;;;4945587;29;20039;-95
2021/07/15 01:49:00;;;;;;;8.40;6.07;;;15.40;99.90;;;;;;4947019;29;20019;-94
2021/07/15 01:51:27;;;;;;;11.02;7.15;;;15.40;99.90;;;;;;4947652;29;20034;-94
2021/07/15 01:53:53;;;;;;;13.07;7.00;;;15.40;99.90;;;;;;4947589;29;20465;-96
2021/07/15 01:56:19;;;;;;;12.27;7.03;;;15.40;99.90;;;;;;4952531;29;20082;-95
2021/07/15 01:58:48;;;;;;;12.70;7.95;;;15.40;99.90;;;;;;4963298;29;20027;-93
2021/07/15 02:01:16;;;;;;;10.25;7.00;;;15.40;99.90;;;;;;4963105;29;20047;-94
2021/07/15 02:03:46;;;;;;;10.60;6.80;;;15.40;99.90;;;;;;4963354;28;20039;-95
2021/07/15 02:06:13;;;;;;;12.82;7.28;;;15.40;99.90;;;;;;4952076;29;20031;-94
2021/07/15 02:08:40;;;;;;;12.52;7.00;;;15.40;99.90;;;;;;4947501;29;20652;-95
2021/07/15 02:11:07;;;;;;;10.32;6.63;;;15.40;99.90;;;;;;4947663;29;20095;-95
2021/07/15 02:13:35;;;;;;;13.32;7.32;;;15.40;99.90;;;;;;4949594;29;20058;-96
2021/07/15 02:16:02;;;;;;;11.40;6.95;;;15.40;99.90;;;;;;4946504;28;20039;-95
2021/07/15 02:18:28;;;;;;;11.80;7.43;;;15.40;99.90;;;;;;4943824;29;20050;-95
2021/07/15 02:20:55;;;;;;;7.88;6.47;;;15.40;99.90;;;;;;4944043;29;20070;-96
2021/07/15 02:23:23;;;;;;;13.02;6.78;;;15.40;99.90;;;;;;4942700;29;20512;-95
2021/07/15 02:25:51;;;;;;;13.10;6.47;;;15.40;99.90;;;;;;4943389;29;20042;-96
2021/07/15 02:28:20;;;;;;;15.68;8.20;;;15.40;99.90;;;;;;4943610;29;20027;-96
2021/07/15 02:30:52;;;;;;;14.32;7.60;;;15.40;99.90;;;;;;4945405;28;20039;-96
2021/07/15 02:33:22;;;;;;;18.45;7.60;;;15.40;99.90;;;;;;4943977;29;20043;-95
2021/07/15 02:35:51;;;;;;;9.93;6.13;;;15.40;99.90;;;;;;4945190;29;20035;-96
2021/07/15 02:38:25;;;;;;;9.73;6.65;;;15.40;99.90;;;;;;4943205;29;20075;-96
2021/07/15 02:40:51;;;;;;;11.77;7.43;;;15.50;99.90;;;;;;4943754;28;20035;-96
2021/07/15 02:43:17;;;;;;;10.40;6.80;;;15.50;99.90;;;;;;4943262;29;20122;-96
2021/07/15 02:45:43;;;;;;;9.00;6.57;;;15.50;99.90;;;;;;4943305;29;20031;-96
2021/07/15 02:48:11;;;;;;;11.07;6.63;;;15.50;99.90;;;;;;4943586;29;20038;-95
2021/07/15 02:50:38;;;;;;;11.30;6.90;;;15.50;99.90;;;;;;4942872;29;20035;-95
2021/07/15 02:53:04;;;;;;;11.38;6.63;;;15.50;99.90;;;;;;4943078;29;20370;-96
2021/07/15 02:55:30;;;;;;;9.88;6.90;;;15.50;99.90;;;;;;4942592;29;20070;-96
2021/07/15 02:58:05;;;;;;;9.02;6.43;;;15.60;99.90;;;;;;4942155;29;20027;-96
2021/07/15 03:00:44;;;;;;;15.15;6.60;;;15.60;99.90;;;;;;4941955;29;20027;-96
2021/07/15 03:03:21;;;;;;;11.73;6.55;;;15.60;99.90;;;;;;4942778;29;20039;-96
2021/07/15 03:06:14;;;;;;;8.50;5.88;;;15.50;99.90;;;;;;4943340;28;20110;-95
2021/07/15 03:08:56;;;;;;;9.25;6.45;;;15.50;99.90;;;;;;4941038;28;20024;-96
2021/07/15 03:11:28;;;;;;;11.55;6.75;;;15.50;99.90;;;;;;4942427;29;20031;-96
2021/07/15 03:13:56;;;;;;;9.93;6.20;;;15.50;99.90;;;;;;4941313;29;20378;-95
2021/07/15 03:16:24;;;;;;;10.52;6.97;;;15.50;99.90;;;;;;4947651;29;20023;-95
2021/07/15 03:18:52;;;;;;;12.80;7.55;;;15.50;99.90;;;;;;4953663;29;20486;-96
2021/07/15 03:21:21;;;;;;;13.02;8.10;;;15.50;99.90;;;;;;4951012;29;20039;-96
2021/07/15 03:23:48;;;;;;;12.70;7.13;;;15.50;99.90;;;;;;4961409;29;20026;-96
2021/07/15 03:34:20;;;;;;;12.45;8.10;;;15.80;99.90;;;;;;4964554;29;20122;-94
2021/07/15 03:36:50;;;;;;;12.35;8.25;;;15.80;99.90;;;;;;4946506;29;20046;-96
2021/07/15 03:39:17;;;;;;;11.93;7.80;;;15.80;99.90;;;;;;4950910;29;20034;-96
2021/07/15 03:41:47;;;;;;;12.55;8.10;;;15.90;99.90;;;;;;4973335;29;20059;-96
2021/07/15 03:44:20;;;;;;;11.32;7.07;;;15.90;99.90;;;;;;4946275;29;20399;-96
2021/07/15 03:46:49;;;;;;;10.70;7.55;;;15.90;99.90;;;;;;4931413;29;20032;-96
2021/07/15 03:49:21;;;;;;;11.07;6.93;;;15.90;99.90;;;;;;4931441;29;20023;-96
2021/07/15 03:51:48;;;;;;;13.55;7.15;;;15.90;99.90;;;;;;4950019;29;20012;-95
2021/07/15 03:54:18;;;;;;;11.50;7.35;;;15.90;99.90;;;;;;4926571;29;20027;-95
2021/07/15 03:56:46;;;;;;;15.48;8.18;;;15.90;99.90;;;;;;4930434;29;20557;-96
2021/07/15 03:59:12;;;;;;;10.65;7.72;;;15.90;99.90;;;;;;4926851;29;20091;-96
2021/07/15 04:01:40;;;;;;;10.63;8.15;;;15.90;99.90;;;;;;4928354;29;20066;-96
2021/07/15 04:04:08;;;;;;;11.40;6.97;;;15.90;99.90;;;;;;4924058;29;20047;-95
2021/07/15 04:06:35;;;;;;;11.43;7.05;;;15.90;99.90;;;;;;4923742;29;20031;-95
2021/07/15 04:09:12;;;;;;;15.02;7.60;;;15.90;99.90;;;;;;4929328;29;20035;-94
2021/07/15 04:11:43;;;;;;;11.50;6.47;;;15.90;99.90;;;;;;4923438;29;20028;-95
2021/07/15 04:14:14;;;;;;;15.23;6.53;;;16.00;99.90;;;;;;4921256;29;20027;-96
2021/07/15 04:17:07;;;;;;;13.18;6.47;;;16.00;99.90;;;;;;4921303;29;20034;-96
2021/07/15 04:19:35;;;;;;;11.25;6.55;;;16.00;99.90;;;;;;4914926;29;20031;-96
2021/07/15 04:22:06;;;;;;;9.73;6.20;;;16.00;99.90;;;;;;4922498;29;20042;-95
2021/07/15 04:24:34;;;;;;;9.10;5.90;;;16.00;99.90;;;;;;4921608;29;20126;-95
2021/07/15 04:27:02;;;;;;;13.20;7.80;;;16.10;99.90;;;;;;4920618;29;20027;-95
2021/07/15 04:29:30;;;;;;;9.88;6.63;;;16.10;99.90;;;;;;4920915;29;20028;-95
2021/07/15 04:31:58;;;;;;;20.17;7.63;;;16.10;99.90;;;;;;4920446;29;20028;-95
2021/07/15 04:34:27;;;;;;;10.65;5.60;;;16.10;99.90;;;;;;4921077;29;20043;-95
2021/07/15 04:36:54;;;;;;;11.05;6.68;;;16.10;99.90;;;;;;4921169;29;20023;-95
2021/07/15 04:39:23;;;;;;;12.02;5.28;;;16.10;99.90;;;;;;4921647;29;20062;-95
2021/07/15 04:41:49;;;;;;;8.55;6.07;;;16.10;99.90;;;;;;4910798;29;20028;-94
2021/07/15 04:44:16;;;;;;;11.20;5.47;;;16.20;99.90;;;;;;4922799;29;20095;-95
2021/07/15 04:46:42;;;;;;;8.85;5.75;;;16.20;99.90;;;;;;4922011;29;20036;-96
2021/07/15 04:49:08;;;;;;;8.32;5.95;;;16.20;99.90;;;;;;4921089;29;20122;-96
2021/07/15 04:51:39;;;;;;;10.80;5.57;;;16.20;99.90;;;;;;4925456;29;20031;-96
2021/07/15 04:54:06;;;;;;;7.30;5.15;;;16.20;99.90;;;;;;4923984;29;20504;-94
2021/07/15 04:56:32;;;;;;;9.73;5.22;;;16.20;99.90;;;;;;4924698;29;20043;-95
2021/07/15 04:58:59;;;;;;;8.23;5.05;;;16.20;99.90;;;;;;4923590;29;20245;-96
2021/07/15 05:01:25;;;;;;;7.97;4.82;;;16.20;99.90;;;;;;4920568;29;20032;-95
2021/07/15 05:03:51;;;;;;;8.95;4.95;;;16.10;99.90;;;;;;4920239;29;20039;-96
2021/07/15 05:06:19;;;;;;;6.15;4.95;;;16.10;99.90;;;;;;4920527;29;20047;-95
2021/07/15 05:08:45;;;;;;;8.25;4.65;;;16.10;99.90;;;;;;4920924;29;20028;-96
2021/07/15 05:11:12;;;;;;;8.15;5.05;;;16.10;99.90;;;;;;4921000;29;20481;-95
2021/07/15 05:13:38;;;;;;;11.50;4.70;;;16.10;99.90;;;;;;4920958;29;20031;-95
2021/07/15 05:16:05;;;;;;;6.32;4.63;;;16.10;99.90;;;;;;4922434;29;20078;-95
2021/07/15 05:18:32;;;;;;;9.32;5.18;;;16.00;99.90;;;;;;4920992;29;20034;-95
2021/07/15 05:20:57;;;;;;;6.47;4.88;;;16.00;99.90;;;;;;4922323;29;20024;-94
2021/07/15 05:23:23;;;;;;;9.85;4.85;;;16.00;99.90;;;;;;4921284;29;20450;-95
2021/07/15 05:25:51;;;;;;;7.78;4.90;;;16.00;99.90;;;;;;4921320;29;20045;-96
2021/07/15 05:28:18;;;;;;;11.25;4.70;;;16.00;99.90;;;;;;4925999;29;20156;-96
2021/07/15 05:30:44;;;;;;;10.85;5.03;;;16.00;99.90;;;;;;4908732;29;20028;-95
2021/07/15 05:33:10;;;;;;;9.35;5.43;;;16.00;99.90;;;;;;4935672;29;20076;-95
2021/07/15 05:35:36;;;;;;;9.85;4.45;;;16.00;99.90;;;;;;4944124;29;20111;-95
2021/07/15 05:40:48;;;;;;;6.72;4.53;;;15.90;99.90;;;;;;4989054;23;20116;-96
2021/07/15 05:43:13;;;;;;;7.28;3.92;;;16.00;99.90;;;;;;4970728;28;20042;-95
2021/07/15 05:45:41;;;;;;;6.70;4.70;;;16.00;99.90;;;;;;4956859;28;20137;-95
2021/07/15 05:48:07;;;;;;;7.25;4.00;;;16.00;99.90;;;;;;4953906;28;20138;-95
2021/07/15 05:50:33;;;;;;;5.40;3.92;;;16.00;99.90;;;;;;4963410;28;20037;-96
2021/07/15 05:52:59;;;;;;;7.60;3.83;;;16.00;99.90;;;;;;4966069;28;20062;-96
2021/07/15 05:55:25;;;;;;;7.95;3.65;;;16.10;99.90;;;;;;4964645;28;20026;-96
2021/07/15 05:57:50;;;;;;;6.03;3.33;;;16.10;99.90;;;;;;4979237;28;20038;-96
2021/07/15 06:14:17;;;;;;;6.47;3.40;;;16.50;99.90;;;;;;4994590;28;20086;-94
2021/07/15 06:16:43;;;;;;;10.82;2.90;;;16.60;99.90;;;;;;4988588;28;20050;-94
2021/07/15 06:19:08;;;;;;;7.80;3.22;;;16.70;99.90;;;;;;4980417;28;20141;-93
2021/07/15 06:21:34;;;;;;;6.45;3.53;;;16.70;99.90;;;;;;4980407;28;20037;-94
2021/07/15 06:24:00;;;;;;;5.75;2.90;;;16.80;99.90;;;;;;4979764;28;20034;-94
2021/07/15 06:26:25;;;;;;;5.53;2.95;;;16.90;99.90;;;;;;4980068;28;20026;-95
2021/07/15 06:28:51;;;;;;;5.05;3.30;;;17.00;99.90;;;;;;4980573;28;20050;-94
2021/07/15 06:31:17;;;;;;;5.75;3.53;;;17.10;99.90;;;;;;4979563;28;20030;-94
2021/07/15 06:33:43;;;;;;;14.30;3.25;;;17.10;99.90;;;;;;4979861;28;20089;-94
2021/07/15 06:36:09;;;;;;;4.40;2.15;;;17.10;99.90;;;;;;4979950;28;20022;-94
2021/07/15 06:38:37;;;;;;;6.63;2.88;;;17.10;99.90;;;;;;4980260;28;20031;-94
2021/07/15 06:41:06;;;;;;;5.38;2.65;;;17.00;99.90;;;;;;4979878;28;20052;-94
2021/07/15 06:43:32;;;;;;;4.35;2.97;;;17.00;99.90;;;;;;4963338;28;20034;-94
2021/07/15 06:45:58;;;;;;;10.25;2.75;;;17.00;99.90;;;;;;4964004;28;20029;-94
2021/07/15 06:48:23;;;;;;;6.53;2.83;;;17.00;99.90;;;;;;4969347;28;20027;-94
2021/07/15 06:50:49;;;;;;;5.63;2.80;;;17.00;99.90;;;;;;4968764;28;20416;-95
2021/07/15 06:53:15;;;;;;;6.30;2.60;;;17.00;99.90;;;;;;4961220;28;20074;-94
2021/07/15 06:55:42;;;;;;;3.58;2.35;;;17.10;99.90;;;;;;4960838;28;20030;-94
2021/07/15 06:58:08;;;;;;;5.68;2.50;;;17.10;99.90;;;;;;4961413;28;20429;-93
2021/07/15 07:00:34;;;;;;;6.03;2.50;;;17.10;99.90;;;;;;4961375;28;20033;-94
2021/07/15 07:03:00;;;;;;;5.03;2.58;;;17.10;99.90;;;;;;4960378;28;20054;-94
2021/07/15 07:05:25;;;;;;;4.97;2.53;;;17.10;99.90;;;;;;4961451;28;20084;-95
2021/07/15 07:07:52;;;;;;;6.57;2.97;;;17.10;99.90;;;;;;4942997;28;20023;-95
2021/07/15 07:10:19;;;;;;;4.40;2.72;;;17.10;99.90;;;;;;4958573;28;20142;-94
2021/07/15 07:12:46;;;;;;;4.20;2.25;;;17.20;99.90;;;;;;4959493;28;20495;-93
2021/07/15 07:15:15;;;;;;;5.55;2.30;;;17.20;99.90;;;;;;4955970;28;20043;-92
2021/07/15 07:17:41;;;;;;;4.47;2.40;;;17.20;99.90;;;;;;4939185;29;20035;-92
2021/07/15 07:20:09;;;;;;;5.25;2.28;;;17.20;99.90;;;;;;4935307;29;20034;-94
2021/07/15 07:22:36;;;;;;;3.30;2.20;;;17.30;99.90;;;;;;4936344;29;20055;-92
2021/07/15 07:25:03;;;;;;;4.75;2.00;;;17.30;99.90;;;;;;4941263;28;20097;-92
2021/07/15 07:27:31;;;;;;;3.33;1.98;;;17.30;99.90;;;;;;4937892;29;20020;-91
2021/07/15 07:29:57;;;;;;;4.57;2.08;;;17.40;99.90;;;;;;4947539;29;20035;-94
2021/07/15 07:32:23;;;;;;;2.00;1.70;;;17.40;99.90;;;;;;4956452;29;20016;-93
2021/07/15 07:34:48;;;;;;;3.35;1.70;;;17.40;99.90;;;;;;4953704;29;20048;-94
2021/07/15 07:37:14;;;;;;;2.30;2.10;;;17.50;99.90;;;;;;4935244;29;20453;-94
2021/07/15 07:39:40;;;;;;;3.13;1.80;;;17.50;99.90;;;;;;4935525;29;20051;-93
2021/07/15 07:42:06;;;;;;;5.38;1.70;;;17.50;99.90;;;;;;4933956;29;20031;-95
2021/07/15 07:44:32;;;;;;;3.63;2.00;;;17.50;99.90;;;;;;4927127;29;20088;-95
2021/07/15 07:46:58;;;;;;;2.83;2.00;;;17.50;99.90;;;;;;4935066;29;20024;-95
2021/07/15 07:49:24;;;;;;;2.97;1.80;;;17.60;99.90;;;;;;4935891;29;20119;-95
2021/07/15 07:51:51;;;;;;;2.70;1.98;;;17.60;99.90;;;;;;4935138;29;20055;-96
2021/07/15 07:54:17;;;;;;;2.33;1.90;;;17.70;99.90;;;;;;4944515;29;20385;-96
2021/07/15 07:57:01;;;;;;;2.38;1.70;;;17.70;99.90;;;;;;4946683;29;20027;-96
2021/07/15 07:59:27;;;;;;;3.55;1.75;;;17.70;99.90;;;;;;4951971;29;20039;-96
2021/07/15 08:01:56;;;;;;;4.10;1.75;;;17.70;99.90;;;;;;4947816;29;20104;-96
2021/07/15 08:04:22;;;;;;;1.85;1.48;;;17.80;99.90;;;;;;4929780;29;20040;-95
2021/07/15 08:06:49;;;;;;;1.95;1.30;;;17.90;99.90;;;;;;4940321;29;20034;-95
2021/07/15 08:11:54;;;;;;;1.58;1.30;;;18.00;99.90;;;;;;5133945;23;20041;-96
2021/07/15 08:14:23;;;;;;;3.60;1.08;;;18.00;99.90;;;;;;5000649;28;20046;-95
2021/07/15 08:16:52;;;;;;;1.20;1.02;;;18.10;99.90;;;;;;5011808;28;20026;-96
2021/07/15 08:19:20;;;;;;;1.90;1.70;;;18.10;99.90;;;;;;5003801;28;20024;-96
2021/07/15 08:21:46;;;;;;;3.30;1.45;;;18.20;99.90;;;;;;4995427;28;20006;-96
2021/07/15 08:24:14;;;;;;;3.78;1.63;;;18.20;99.90;;;;;;4993084;28;20124;-96
2021/07/15 08:26:40;;;;;;;2.85;1.42;;;18.20;99.90;;;;;;4990642;28;20113;-95
2021/07/15 08:29:05;;;;;;;3.20;2.00;;;18.20;99.90;;;;;;4989437;28;20113;-95
2021/07/15 08:31:31;;;;;;;2.22;1.40;;;18.10;99.90;;;;;;5000560;28;20030;-96
2021/07/15 08:33:58;;;;;;;4.10;1.85;;;18.20;99.90;;;;;;4997283;28;20041;-96
2021/07/15 08:36:26;;;;;;;2.08;1.38;;;18.20;99.90;;;;;;5015363;28;20006;-96
2021/07/15 08:38:53;;;;;;;3.17;1.10;;;18.30;99.90;;;;;;5019618;28;20098;-96
2021/07/15 08:41:19;;;;;;;1.50;1.30;;;18.30;99.90;;;;;;5004989;28;20037;-95
2021/07/15 08:43:46;;;;;;;1.70;1.23;;;18.40;99.90;;;;;;4965689;28;20031;-94
2021/07/15 08:46:17;;;;;;;1.95;1.05;;;18.40;99.90;;;;;;4979661;28;20023;-96
2021/07/15 08:48:46;;;;;;;2.05;1.20;;;18.50;99.90;;;;;;4975057;28;20032;-96
2021/07/15 08:51:12;;;;;;;2.03;1.30;;;18.60;99.90;;;;;;4970830;28;20026;-96
2021/07/15 08:53:39;;;;;;;1.73;1.30;;;18.60;99.90;;;;;;4958792;28;20480;-96
2021/07/15 08:58:50;;;;;;;1.25;1.15;;;18.70;99.90;;;;;;4987938;28;20076;-95
2021/07/15 09:01:16;;;;;;;1.58;1.23;;;18.90;99.90;;;;;;4961308;28;20030;-95
2021/07/15 09:03:42;;;;;;;1.50;1.20;;;19.00;99.90;;;;;;4977285;28;20464;-94
2021/07/15 09:06:08;;;;;;;1.83;1.20;;;19.20;99.90;;;;;;4966600;28;20062;-95
2021/07/15 09:08:34;;;;;;;2.80;1.23;;;19.30;99.90;;;;;;4978418;28;20037;-95
2021/07/15 09:11:04;;;;;;;2.63;1.10;;;19.30;99.50;;;;;;4978760;28;20130;-94
2021/07/15 09:13:30;;;;;;;2.88;1.33;;;19.40;99.00;;;;;;4963986;28;20023;-94
2021/07/15 09:15:56;;;;;;;1.30;1.15;;;19.50;98.90;;;;;;4980914;28;20031;-93
2021/07/15 09:18:22;;;;;;;2.67;1.15;;;19.60;98.50;;;;;;4980276;28;20177;-95
2021/07/15 09:20:48;;;;;;;4.38;1.38;;;19.70;98.40;;;;;;4979968;28;20484;-96
2021/07/15 09:23:16;;;;;;;9.07;1.00;;;19.80;98.20;;;;;;4976996;28;20040;-96
2021/07/15 09:25:42;;;;;;;11.40;1.52;;;19.90;97.70;;;;;;4974401;28;20054;-96
2021/07/15 09:28:11;;;;;;;1.45;1.08;;;20.00;96.80;;;;;;4972588;28;20040;-96
2021/07/15 09:30:38;;;;;;;1.15;1.05;;;20.10;96.50;;;;;;4959782;28;20159;-96
2021/07/15 09:33:07;;;;;;;9.88;1.33;;;20.20;96.10;;;;;;4971610;28;20293;-96
2021/07/15 09:35:38;;;;;;;3.97;1.10;;;20.30;95.70;;;;;;4980159;28;20027;-96
2021/07/15 09:38:10;;;;;;;1.85;0.85;;;20.40;95.20;;;;;;4986315;28;20117;-96
2021/07/15 09:40:49;;;;;;;3.35;0.60;;;20.50;94.70;;;;;;4974844;28;20042;-94
2021/07/15 09:43:21;;;;;;;0.85;0.80;;;20.50;94.40;;;;;;4976324;28;20508;-94
2021/07/15 09:45:49;;;;;;;1.88;0.90;;;20.60;93.90;;;;;;4970598;28;20064;-95
2021/07/15 09:48:18;;;;;;;1.65;1.23;;;20.80;93.30;;;;;;4968149;28;20107;-95
2021/07/15 09:50:44;;;;;;;2.13;0.90;;;21.00;93.10;;;;;;4973303;28;20035;-95
2021/07/15 09:53:20;;;;;;;2.15;1.00;;;21.30;92.40;;;;;;4972344;28;20057;-96
2021/07/15 09:55:46;;;;;;;2.05;0.98;;;21.50;91.70;;;;;;4968681;28;20687;-95
2021/07/15 09:58:14;;;;;;;1.65;0.85;;;21.70;91.30;;;;;;4972042;28;20109;-93
2021/07/15 10:00:45;;;;;;;1.45;0.90;;;21.80;90.70;;;;;;4979572;28;20753;-96
2021/07/15 10:03:13;;;;;;;1.83;1.00;;;21.80;90.40;;;;;;4997693;28;20471;-96
2021/07/15 10:05:52;;;;;;;1.33;1.17;;;21.80;90.30;;;;;;4979865;28;20546;-95
2021/07/15 10:08:29;;;;;;;2.88;0.90;;;21.90;89.80;;;;;;4965793;28;20030;-95
2021/07/15 10:10:56;;;;;;;4.43;1.20;;;21.90;89.60;;;;;;4979104;28;20077;-95
2021/07/15 10:13:24;;;;;;;0.90;0.82;;;22.00;88.90;;;;;;4984428;28;20030;-95
2021/07/15 10:15:51;;;;;;;2.15;0.80;;;22.10;88.30;;;;;;4977915;28;20500;-95
2021/07/15 10:18:38;;;;;;;1.23;0.77;;;22.20;87.60;;;;;;4960835;28;20026;-95
2021/07/15 10:21:06;;;;;;;1.10;1.00;;;22.30;86.40;;;;;;4981658;28;20558;-96
2021/07/15 10:23:35;;;;;;;2.60;0.95;;;22.50;85.80;;;;;;4983389;28;20034;-95
2021/07/15 10:26:04;;;;;;;1.05;0.70;;;22.50;85.00;;;;;;4991600;28;20040;-96
2021/07/15 10:28:31;;;;;;;1.85;0.88;;;22.60;84.30;;;;;;4984880;28;20034;-96
2021/07/15 10:31:02;;;;;;;1.15;1.00;;;22.70;84.00;;;;;;4984234;28;20054;-96
2021/07/15 10:33:29;;;;;;;2.15;1.00;;;22.80;83.70;;;;;;4987398;28;20027;-96
2021/07/15 10:35:57;;;;;;;0.90;0.70;;;22.70;82.90;;;;;;4972815;28;20033;-96
2021/07/15 10:38:26;;;;;;;1.60;1.00;;;22.60;83.00;;;;;;4980577;28;20030;-96
2021/07/15 10:40:52;;;;;;;2.35;0.98;;;22.50;83.00;;;;;;4981776;28;20037;-96
2021/07/15 10:43:18;;;;;;;4.20;1.20;;;22.30;82.70;;;;;;4970814;28;20512;-96
2021/07/15 10:45:45;;;;;;;3.38;0.93;;;22.20;82.80;;;;;;4990279;28;20068;-96
2021/07/15 10:48:13;;;;;;;1.67;1.05;;;22.20;83.20;;;;;;4977022;28;20019;-95
2021/07/15 10:50:40;;;;;;;4.40;1.00;;;22.30;83.30;;;;;;4978014;28;20065;-96
2021/07/15 10:53:08;;;;;;;1.35;0.80;;;22.40;83.30;;;;;;4990174;28;20049;-96
2021/07/15 10:55:34;;;;;;;0.77;0.77;;;22.60;83.50;;;;;;4981931;28;20105;-96
2021/07/15 10:58:00;;;;;;;1.67;0.80;;;22.80;82.70;;;;;;4976568;28;20050;-96
2021/07/15 11:00:27;;;;;;;2.00;1.10;;;23.10;82.10;;;;;;4968631;28;20022;-95
2021/07/15 11:03:10;;;;;;;5.03;1.25;;;23.10;80.80;;;;;;4996625;28;20018;-96
2021/07/15 11:05:51;;;;;;;1.40;0.80;;;23.10;80.80;;;;;;5001855;28;20037;-93
2021/07/15 11:08:18;;;;;;;1.92;1.30;;;23.10;80.20;;;;;;4990576;28;20125;-94
2021/07/15 11:10:44;;;;;;;1.40;0.98;;;23.40;80.30;;;;;;4987605;28;20050;-95
2021/07/15 11:13:10;;;;;;;1.95;1.10;;;23.60;80.00;;;;;;4988642;28;20026;-96
2021/07/15 11:16:07;;;;;;;1.58;1.10;;;23.70;79.30;;;;;;4990056;28;20037;-96
2021/07/15 11:18:49;;;;;;;1.38;0.95;;;24.10;78.50;;;;;;4972132;28;20041;-96
2021/07/15 11:21:31;;;;;;;1.30;1.00;;;24.40;77.50;;;;;;4984472;28;20038;-96
2021/07/15 11:24:08;;;;;;;1.40;1.00;;;24.50;75.80;;;;;;4985296;28;20130;-96
2021/07/15 11:26:42;;;;;;;1.23;0.80;;;24.70;75.70;;;;;;4981079;28;20038;-94
2021/07/15 11:29:12;;;;;;;1.00;0.88;;;24.80;75.00;;;;;;4979749;28;20464;-95
2021/07/15 11:31:46;;;;;;;1.02;0.82;;;24.80;74.10;;;;;;4975184;28;20034;-94
2021/07/15 11:34:41;;;;;;;1.25;1.02;;;25.00;73.70;;;;;;4975358;28;20066;-94
2021/07/15 11:37:25;;;;;;;1.85;1.10;;;25.00;72.60;;;;;;4975120;28;20030;-96
2021/07/15 11:39:55;;;;;;;1.02;0.93;;;25.00;72.30;;;;;;4976448;28;20026;-94
2021/07/15 11:50:49;;;;;;;1.70;0.93;;;24.80;72.20;;;;;;5010494;28;20065;-96
2021/07/15 12:01:34;;;;;;;1.38;1.10;;;24.70;71.80;;;;;;6110573;23;20951;31
2021/07/15 12:04:17;;;;;;;1.65;0.93;;;24.70;71.90;;;;;;4938687;29;20055;-96
2021/07/15 12:06:47;;;;;;;1.23;0.90;;;24.80;71.90;;;;;;4923052;29;20099;-96
2021/07/15 12:09:14;;;;;;;3.13;1.10;;;24.80;71.80;;;;;;4926058;29;20047;-90
2021/07/15 12:11:42;;;;;;;3.72;1.00;;;24.80;72.00;;;;;;4919493;29;20066;-90
2021/07/15 12:14:09;;;;;;;2.63;1.45;;;24.90;72.00;;;;;;4919548;29;20056;-91
2021/07/15 12:16:40;;;;;;;2.10;1.13;;;24.90;71.90;;;;;;4919893;29;20034;-91
2021/07/15 12:19:09;;;;;;;2.97;1.10;;;24.80;71.80;;;;;;4919570;29;20067;-90
2021/07/15 12:21:35;;;;;;;2.67;1.40;;;24.70;71.90;;;;;;4919892;29;20051;-92
2021/07/15 12:24:16;;;;;;;1.20;0.88;;;24.80;71.80;;;;;;4919480;29;20070;-91
2021/07/15 12:26:42;;;;;;;1.13;0.80;;;25.00;71.30;;;;;;4915467;29;20032;-91
2021/07/15 12:29:12;;;;;;;2.53;1.00;;;25.10;71.30;;;;;;4917026;29;20030;-92
2021/07/15 12:31:38;;;;;;;3.78;0.95;;;25.30;70.70;;;;;;4917979;29;20024;-92
2021/07/15 12:34:09;;;;;;;2.70;1.10;;;25.40;70.30;;;;;;4933113;29;20066;-93
2021/07/15 12:36:37;;;;;;;4.40;1.00;;;25.50;69.70;;;;;;4933476;29;20107;-92
2021/07/15 12:39:11;;;;;;;3.03;0.90;;;25.50;69.20;;;;;;4925054;29;20102;-91
2021/07/15 12:41:45;;;;;;;2.65;1.00;;;25.60;69.00;;;;;;4922200;29;20846;-93
2021/07/15 12:44:14;;;;;;;2.60;1.10;;;25.80;69.30;;;;;;4914692;29;20028;-92
2021/07/15 12:46:42;;;;;;;0.85;0.82;;;26.00;68.70;;;;;;4914530;29;20024;-92
2021/07/15 12:49:16;;;;;;;1.73;1.25;;;26.20;68.20;;;;;;4905542;29;20028;-91
2021/07/15 12:51:51;;;;;;;1.27;0.93;;;26.50;67.50;;;;;;4911682;29;20047;-92
2021/07/15 12:54:35;;;;;;;1.40;1.15;;;26.70;66.70;;;;;;4906664;29;20084;-92
2021/07/15 12:57:05;;;;;;;1.98;0.85;;;26.90;65.40;;;;;;4916477;29;20085;-92
2021/07/15 12:59:32;;;;;;;1.48;0.70;;;26.90;65.30;;;;;;4912352;29;20032;-92
2021/07/15 13:01:59;;;;;;;1.52;1.20;;;27.00;65.10;;;;;;4914624;29;20036;-93
2021/07/15 13:04:26;;;;;;;3.63;0.90;;;27.10;65.40;;;;;;4923974;29;20067;-92
2021/07/15 13:06:59;;;;;;;3.15;1.08;;;27.30;65.00;;;;;;4924608;29;20046;-93
2021/07/15 13:09:37;;;;;;;2.50;1.15;;;27.30;64.40;;;;;;4923186;29;20030;-94
2021/07/15 13:14:59;;;;;;;1.40;0.85;;;27.50;63.70;;;;;;4923980;29;20054;-93
2021/07/15 13:17:35;;;;;;;2.40;0.93;;;27.60;63.60;;;;;;4924163;29;20466;-93
2021/07/15 13:20:14;;;;;;;1.65;1.25;;;27.80;62.90;;;;;;4925248;29;20474;-93
2021/07/15 13:22:48;;;;;;;2.28;1.20;;;27.80;62.60;;;;;;4933384;29;20039;-94
2021/07/15 13:25:22;;;;;;;2.03;1.02;;;27.80;62.20;;;;;;4930972;29;20028;-94
2021/07/15 13:27:49;;;;;;;1.33;0.98;;;27.80;62.90;;;;;;4923183;29;20028;-93
2021/07/15 13:30:17;;;;;;;5.85;1.10;;;27.90;62.50;;;;;;4923902;29;20500;-94
2021/07/15 13:32:43;;;;;;;2.38;1.35;;;28.00;62.50;;;;;;4930629;29;20036;-92
2021/07/15 13:35:14;;;;;;;1.30;1.00;;;28.20;62.50;;;;;;4924037;29;20038;-93
2021/07/15 13:37:40;;;;;;;1.80;1.20;;;28.40;61.90;;;;;;4925021;29;20024;-94
2021/07/15 13:40:23;;;;;;;1.75;1.00;;;28.40;61.10;;;;;;4924008;29;20028;-94
2021/07/15 13:42:49;;;;;;;2.88;1.00;;;28.60;60.60;;;;;;4931996;29;20213;-93
2021/07/15 13:45:22;;;;;;;1.63;1.08;;;28.70;59.70;;;;;;4916060;29;20126;-93